KGEZ

Shelbyville Municipal Airport

Shelbyville, Indiana, USA
METAR KGEZ 240153Z AUTO 07006KT 10SM CLR 21/13 A3014 RMK AO2 SLP203 T02110128
Observed Flight Rules
May-24 @ 01:53 UTC (21 minutes ago) Visual Flight Rules
Wind Visibility Clouds
70° at 6 knots 10 miles
  • Clear skies
Temperatures Readings
Current 21°C / 70°F
Dewpoint 13°C / 55°F
Humidity 60%
Altimeter 30.14" Hg
Pressure 1020.3 hPa
Elevation 245
METAR KGEZ 240153Z AUTO 07006KT 10SM CLR 21/13 A3014 RMK AO2 SLP203 T02110128
Observed Flight Rules
May-24 @ 01:53 UTC
(21 minutes ago)
VFR
Wind Visibility
70° at 6 knots 10 miles
Clouds
  • Clear skies
Temperature Dewpoint
21°C / 70°F 13°C / 55°F
Humidity Altimeter Pressure
60% 30.14" Hg 1020.3 hPa